createdAt,value
2018-11-04T00:00:19.040Z,38.50
2018-11-04T00:02:48.201Z,37.93
2018-11-04T00:05:17.184Z,38.47
2018-11-04T00:07:47.565Z,37.97
2018-11-04T00:10:16.160Z,36.83
2018-11-04T00:12:44.846Z,38.73
2018-11-04T00:15:13.465Z,37.20
2018-11-04T00:17:42.110Z,38.50
2018-11-04T00:20:14.031Z,37.63
2018-11-04T00:26:13.400Z,35.83
2018-11-04T00:28:42.027Z,40.03
2018-11-04T00:31:10.665Z,37.83
2018-11-04T00:33:39.264Z,38.47
2018-11-04T00:36:07.977Z,37.70
2018-11-04T00:38:36.649Z,37.10
2018-11-04T00:41:05.715Z,35.77
2018-11-04T00:43:34.292Z,36.37
2018-11-04T00:46:02.962Z,39.67
2018-11-04T00:48:31.638Z,37.90
2018-11-04T00:51:00.984Z,36.50
2018-11-04T00:53:30.530Z,35.80
2018-11-04T00:55:59.158Z,36.87
2018-11-04T00:58:27.865Z,37.20
2018-11-04T01:00:56.515Z,38.10
2018-11-04T01:03:25.415Z,36.70
2018-11-04T01:05:53.987Z,38.97
2018-11-04T01:08:22.606Z,40.40
2018-11-04T01:10:51.207Z,36.13
2018-11-04T01:13:20.094Z,36.10
2018-11-04T01:15:49.658Z,36.60
2018-11-04T01:18:18.255Z,35.93
2018-11-04T01:20:46.918Z,34.53
2018-11-04T01:23:15.589Z,35.17
2018-11-04T01:25:44.263Z,37.13
2018-11-04T01:28:13.942Z,36.27
2018-11-04T01:30:42.541Z,35.17
2018-11-04T01:33:11.627Z,39.37
2018-11-04T01:35:40.313Z,36.40
2018-11-04T01:38:09.238Z,36.83
2018-11-04T01:40:38.168Z,39.93
2018-11-04T01:43:07.583Z,36.90
2018-11-04T01:45:36.223Z,37.87
2018-11-04T01:48:06.253Z,37.60
2018-11-04T01:54:12.346Z,35.80
2018-11-04T01:56:41.782Z,36.23
2018-11-04T01:59:10.450Z,35.27
2018-11-04T02:01:39.062Z,34.13
2018-11-04T02:04:07.655Z,34.67
2018-11-04T02:10:08.008Z,36.37
2018-11-04T02:12:37.019Z,33.70
2018-11-04T02:15:06.136Z,35.63
2018-11-04T02:17:34.819Z,33.93
2018-11-04T02:20:04.255Z,33.53
2018-11-04T02:22:32.841Z,33.43
2018-11-04T02:25:01.465Z,33.10
2018-11-04T02:27:30.101Z,31.33
2018-11-04T02:29:58.768Z,30.13
2018-11-04T02:32:28.211Z,33.53
2018-11-04T02:34:57.025Z,31.03
2018-11-04T02:37:25.583Z,29.67
2018-11-04T02:39:54.211Z,31.37
2018-11-04T02:42:22.774Z,28.13
2018-11-04T02:44:51.342Z,30.33
2018-11-04T02:47:20.026Z,30.07
2018-11-04T02:49:49.584Z,31.43
2018-11-04T02:52:18.419Z,30.70
2018-11-04T02:54:47.738Z,29.97
2018-11-04T02:57:17.038Z,31.63
2018-11-04T02:59:45.679Z,31.70
2018-11-04T03:02:14.389Z,29.07
2018-11-04T03:04:43.083Z,29.53
2018-11-04T03:07:11.769Z,32.70
2018-11-04T03:09:40.385Z,30.50
2018-11-04T03:12:08.938Z,29.93
2018-11-04T03:14:37.511Z,33.37
2018-11-04T03:17:06.327Z,33.50
2018-11-04T03:19:35.696Z,34.77
2018-11-04T03:22:04.448Z,32.83
2018-11-04T03:24:33.272Z,31.00
2018-11-04T03:27:01.815Z,29.87
2018-11-04T03:29:30.479Z,29.50
2018-11-04T03:31:59.096Z,28.37
2018-11-04T03:34:27.643Z,29.17
2018-11-04T03:36:56.300Z,27.00
2018-11-04T03:39:25.229Z,27.80
2018-11-04T03:41:53.815Z,26.07
2018-11-04T03:44:22.400Z,24.33
2018-11-04T03:46:50.956Z,24.23
2018-11-04T03:49:19.483Z,24.67
2018-11-04T03:52:09.048Z,24.47
2018-11-04T03:54:37.851Z,22.80
2018-11-04T03:57:06.736Z,24.00
2018-11-04T03:59:35.664Z,22.93
2018-11-04T04:02:04.310Z,22.83
2018-11-04T04:04:33.128Z,22.40
2018-11-04T04:07:01.695Z,22.77
2018-11-04T04:09:30.400Z,21.97
2018-11-04T04:11:59.030Z,22.00
2018-11-04T04:14:27.640Z,21.97
2018-11-04T04:16:56.245Z,22.60
2018-11-04T04:19:25.079Z,23.67
2018-11-04T04:21:54.435Z,22.33
2018-11-04T04:24:23.037Z,24.47
2018-11-04T04:26:51.565Z,23.00
2018-11-04T04:29:20.977Z,23.33
2018-11-04T04:31:49.566Z,25.60
2018-11-04T04:34:20.242Z,24.23
2018-11-04T04:36:48.842Z,23.03
2018-11-04T04:39:17.451Z,22.93
2018-11-04T04:41:46.665Z,25.50
2018-11-04T04:44:15.292Z,24.30
2018-11-04T04:46:43.808Z,26.53
2018-11-04T04:49:12.744Z,25.33
2018-11-04T04:51:41.293Z,25.60
2018-11-04T04:54:09.838Z,26.70
2018-11-04T04:56:38.351Z,26.37
2018-11-04T04:59:07.083Z,24.77
2018-11-04T05:01:35.610Z,24.83
2018-11-04T05:04:04.154Z,24.63
2018-11-04T05:06:32.622Z,23.40
2018-11-04T05:09:01.106Z,23.97
2018-11-04T05:11:29.609Z,24.87
2018-11-04T05:13:58.066Z,25.23
2018-11-04T05:16:26.627Z,24.70
2018-11-04T05:18:55.105Z,24.03
2018-11-04T05:21:23.587Z,22.63
2018-11-04T05:23:52.075Z,23.50
2018-11-04T05:26:20.580Z,24.00
2018-11-04T05:28:49.029Z,24.40
2018-11-04T05:31:17.501Z,21.67
2018-11-04T05:33:46.027Z,21.97
2018-11-04T05:37:02.439Z,23.10
2018-11-04T05:39:31.256Z,23.77
2018-11-04T05:41:59.982Z,22.57
2018-11-04T05:44:28.864Z,23.83
2018-11-04T05:46:57.486Z,24.17
2018-11-04T05:49:26.163Z,24.63
2018-11-04T05:51:54.793Z,24.67
2018-11-04T05:54:23.713Z,23.53
2018-11-04T05:56:52.258Z,24.80
2018-11-04T05:59:20.906Z,25.67
2018-11-04T06:01:50.368Z,24.10
2018-11-04T06:04:19.137Z,24.07
2018-11-04T06:06:47.747Z,25.07
2018-11-04T06:09:16.319Z,23.70
2018-11-04T06:11:45.216Z,23.93
2018-11-04T06:14:13.797Z,23.77
2018-11-04T06:16:42.432Z,24.13
2018-11-04T06:19:11.049Z,23.50
2018-11-04T06:21:40.223Z,23.20
2018-11-04T06:24:09.653Z,25.07
2018-11-04T06:26:41.625Z,23.77
2018-11-04T06:29:14.722Z,24.83
2018-11-04T06:31:43.591Z,25.70
2018-11-04T06:34:12.285Z,26.33
2018-11-04T06:36:43.254Z,27.93
2018-11-04T06:39:12.416Z,31.30
2018-11-04T06:41:42.903Z,29.50
2018-11-04T06:44:13.209Z,27.37
2018-11-04T06:46:42.941Z,28.63
2018-11-04T06:49:11.551Z,27.00
2018-11-04T06:51:43.229Z,27.87
2018-11-04T06:54:12.634Z,27.13
2018-11-04T06:56:41.182Z,29.07
2018-11-04T06:59:09.746Z,26.37
2018-11-04T07:01:38.349Z,26.90
2018-11-04T07:04:23.341Z,26.53
2018-11-04T07:06:53.353Z,28.43
2018-11-04T07:09:22.016Z,29.00
2018-11-04T07:11:52.916Z,23.73
2018-11-04T07:14:22.690Z,38.13
2018-11-04T07:16:51.763Z,28.53
2018-11-04T07:19:20.337Z,26.97
2018-11-04T07:21:48.979Z,25.20
2018-11-04T07:24:18.307Z,22.10
2018-11-04T07:26:46.957Z,22.93
2018-11-04T07:29:15.539Z,22.07
2018-11-04T07:31:47.994Z,24.80
2018-11-04T07:34:16.538Z,21.57
2018-11-04T07:36:45.108Z,21.60
2018-11-04T07:39:14.773Z,26.27
2018-11-04T07:41:46.413Z,20.70
2018-11-04T07:44:15.051Z,21.00
2018-11-04T07:46:44.528Z,26.07
2018-11-04T07:49:13.048Z,36.70
2018-11-04T07:51:41.669Z,25.07
2018-11-04T07:54:10.102Z,24.63
2018-11-04T07:56:38.627Z,24.10
2018-11-04T07:59:07.305Z,28.87
2018-11-04T08:01:35.777Z,24.60
2018-11-04T08:04:04.483Z,25.77
2018-11-04T08:06:33.041Z,22.90
2018-11-04T08:09:01.556Z,22.60
2018-11-04T08:11:30.094Z,22.17
2018-11-04T08:13:58.593Z,24.47
2018-11-04T08:16:27.114Z,20.93
2018-11-04T08:18:55.590Z,20.93
2018-11-04T08:21:24.262Z,19.77
2018-11-04T08:23:52.686Z,21.23
2018-11-04T08:26:21.177Z,21.00
2018-11-04T08:28:49.638Z,21.47
2018-11-04T08:31:18.153Z,20.43
2018-11-04T08:33:46.756Z,20.93
2018-11-04T08:36:15.263Z,22.93
2018-11-04T08:38:43.774Z,21.03
2018-11-04T08:41:12.348Z,21.90
2018-11-04T08:43:40.874Z,21.90
2018-11-04T08:46:09.326Z,21.53
2018-11-04T08:48:37.793Z,20.27
2018-11-04T08:51:06.407Z,19.40
2018-11-04T08:53:34.942Z,19.40
2018-11-04T08:56:03.499Z,20.17
2018-11-04T08:58:31.978Z,21.37
2018-11-04T09:01:00.437Z,18.83
2018-11-04T09:03:28.918Z,19.13
2018-11-04T09:05:57.434Z,18.33
2018-11-04T09:08:25.918Z,18.93
2018-11-04T09:10:54.374Z,18.53
2018-11-04T09:13:22.841Z,18.60
2018-11-04T09:15:51.364Z,15.93
2018-11-04T09:18:19.872Z,17.63
2018-11-04T09:20:48.351Z,17.53
2018-11-04T09:23:16.841Z,17.33
2018-11-04T09:25:45.479Z,16.67
2018-11-04T09:28:14.046Z,15.90
2018-11-04T09:30:42.603Z,19.20
2018-11-04T09:33:11.471Z,16.17
2018-11-04T09:35:40.159Z,16.40
2018-11-04T09:38:08.565Z,16.20
2018-11-04T09:40:37.260Z,15.03
2018-11-04T09:43:05.887Z,15.43
2018-11-04T09:45:34.416Z,16.17
2018-11-04T09:48:03.047Z,16.60
2018-11-04T09:50:31.627Z,18.17
2018-11-04T09:53:00.206Z,15.33
2018-11-04T09:55:28.858Z,13.07
2018-11-04T09:57:57.583Z,15.27
2018-11-04T10:00:26.571Z,17.17
2018-11-04T10:02:55.185Z,18.30
2018-11-04T10:05:23.786Z,17.30
2018-11-04T10:07:52.537Z,17.73
2018-11-04T10:10:21.217Z,17.63
2018-11-04T10:12:49.869Z,16.07
2018-11-04T10:15:19.462Z,19.03
2018-11-04T10:17:48.190Z,18.27
2018-11-04T10:20:17.081Z,18.50
2018-11-04T10:22:45.471Z,19.70
2018-11-04T10:25:14.140Z,17.83
2018-11-04T10:27:43.306Z,16.80
2018-11-04T10:30:14.631Z,18.07
2018-11-04T10:32:43.542Z,19.10
2018-11-04T10:35:12.293Z,19.17
2018-11-04T10:37:42.083Z,19.47
2018-11-04T10:40:24.853Z,17.57
2018-11-04T10:42:54.173Z,17.53
2018-11-04T10:45:23.670Z,18.53
2018-11-04T10:47:52.622Z,17.87
2018-11-04T10:50:23.327Z,18.37
2018-11-04T10:52:52.902Z,20.53
2018-11-04T10:55:22.684Z,19.77
2018-11-04T10:57:51.348Z,17.80
2018-11-04T11:00:25.046Z,19.73
2018-11-04T11:02:54.709Z,18.40
2018-11-04T11:05:24.495Z,17.37
2018-11-04T11:07:53.152Z,16.77
2018-11-04T11:10:21.913Z,16.67
2018-11-04T11:12:51.532Z,17.93
2018-11-04T11:15:20.368Z,18.77
2018-11-04T11:17:49.110Z,18.63
2018-11-04T11:20:18.071Z,18.60
2018-11-04T11:22:46.830Z,20.27
2018-11-04T11:25:15.606Z,18.10
2018-11-04T11:27:44.636Z,19.70
2018-11-04T11:30:13.419Z,19.87
2018-11-04T11:32:42.130Z,21.37
2018-11-04T11:35:11.037Z,21.43
2018-11-04T11:37:39.834Z,19.33
2018-11-04T11:40:09.543Z,19.30
2018-11-04T11:42:38.743Z,20.13
2018-11-04T11:45:08.167Z,19.03
2018-11-04T11:47:36.746Z,18.87
2018-11-04T11:50:05.962Z,17.43
2018-11-04T11:52:34.656Z,17.73
2018-11-04T11:55:03.305Z,18.30
2018-11-04T11:57:31.950Z,18.17
2018-11-04T12:00:00.481Z,17.63
2018-11-04T12:02:29.013Z,18.40
2018-11-04T12:04:57.535Z,18.20
2018-11-04T12:07:26.097Z,19.07
2018-11-04T12:09:54.661Z,19.43
2018-11-04T12:12:23.287Z,18.30
2018-11-04T12:14:51.867Z,17.67
2018-11-04T12:17:20.503Z,18.83
2018-11-04T12:19:48.999Z,21.13
2018-11-04T12:22:17.632Z,21.13
2018-11-04T12:24:46.150Z,20.17
2018-11-04T12:27:14.686Z,20.93
2018-11-04T12:29:43.288Z,22.00
2018-11-04T12:32:12.027Z,20.90
2018-11-04T12:34:40.635Z,18.60
2018-11-04T12:37:09.152Z,22.43
2018-11-04T12:39:37.776Z,22.67
2018-11-04T12:42:06.534Z,24.67
2018-11-04T12:44:35.084Z,24.70
2018-11-04T12:47:03.585Z,28.07
2018-11-04T12:49:32.113Z,26.93
2018-11-04T12:52:00.646Z,26.23
2018-11-04T12:54:29.666Z,27.13
2018-11-04T12:56:58.420Z,26.27
2018-11-04T12:59:27.556Z,24.10
2018-11-04T13:01:56.126Z,24.13
2018-11-04T13:04:24.692Z,22.83
2018-11-04T13:06:53.208Z,25.60
2018-11-04T13:09:21.869Z,23.47
2018-11-04T13:11:50.570Z,27.13
2018-11-04T13:14:19.153Z,24.47
2018-11-04T13:16:47.837Z,24.33
2018-11-04T13:19:16.489Z,23.87
2018-11-04T13:21:45.046Z,24.93
2018-11-04T13:24:13.688Z,23.80
2018-11-04T13:26:42.361Z,26.23
2018-11-04T13:29:10.950Z,23.10
2018-11-04T13:31:39.420Z,27.90
2018-11-04T13:34:08.042Z,25.30
2018-11-04T13:36:36.650Z,25.07
2018-11-04T13:39:07.544Z,25.87
2018-11-04T13:41:36.145Z,24.60
2018-11-04T13:44:04.706Z,26.93
2018-11-04T13:46:33.283Z,29.17
2018-11-04T13:49:02.251Z,26.27
2018-11-04T13:51:30.959Z,26.73
2018-11-04T13:53:59.497Z,26.97
2018-11-04T13:56:28.035Z,30.47
2018-11-04T13:58:56.726Z,29.33
2018-11-04T14:01:25.240Z,47.87
2018-11-04T14:03:53.860Z,31.33
2018-11-04T14:06:22.511Z,28.43
2018-11-04T14:08:51.034Z,28.50
2018-11-04T14:11:19.558Z,28.47
2018-11-04T14:13:48.162Z,28.10
2018-11-04T14:16:16.666Z,28.80
2018-11-04T14:18:45.230Z,36.27
2018-11-04T14:21:13.793Z,40.53
2018-11-04T14:23:42.474Z,33.93
2018-11-04T14:26:10.925Z,44.13
2018-11-04T14:28:39.512Z,31.53
2018-11-04T14:31:08.235Z,31.80
2018-11-04T14:33:37.386Z,34.53
2018-11-04T14:36:06.453Z,34.17
2018-11-04T14:38:38.075Z,33.70
2018-11-04T14:41:07.090Z,37.73
2018-11-04T14:43:35.644Z,37.93
2018-11-04T14:46:04.457Z,46.13
2018-11-04T14:48:32.976Z,49.93
2018-11-04T14:51:01.438Z,46.00
2018-11-04T14:53:30.957Z,43.03
2018-11-04T14:56:02.639Z,40.37
2018-11-04T14:58:31.621Z,47.73
2018-11-04T15:01:00.172Z,41.70
2018-11-04T15:03:29.518Z,46.13
2018-11-04T15:05:58.126Z,44.63
2018-11-04T15:08:26.708Z,42.90
2018-11-04T15:10:55.477Z,47.10
2018-11-04T15:13:23.958Z,45.33
2018-11-04T15:15:52.478Z,46.27
2018-11-04T15:18:21.022Z,46.63
2018-11-04T15:20:50.476Z,47.67
2018-11-04T15:23:19.874Z,49.63
2018-11-04T15:25:48.482Z,47.73
2018-11-04T15:28:17.029Z,45.77
2018-11-04T15:30:46.412Z,56.27
2018-11-04T15:33:14.980Z,64.50
2018-11-04T15:35:43.491Z,60.07
2018-11-04T15:38:13.965Z,72.57
2018-11-04T15:40:42.557Z,62.53
2018-11-04T15:43:11.648Z,54.57
2018-11-04T15:45:41.998Z,55.00
2018-11-04T15:48:10.534Z,63.40
2018-11-04T15:50:39.066Z,57.30
2018-11-04T15:53:07.595Z,55.07
2018-11-04T15:55:36.098Z,54.97
2018-11-04T15:58:05.127Z,50.10
2018-11-04T16:00:33.763Z,47.17
2018-11-04T16:03:05.948Z,47.47
2018-11-04T16:05:34.531Z,43.77
2018-11-04T16:08:02.925Z,47.47
2018-11-04T16:10:31.428Z,50.33
2018-11-04T16:12:59.933Z,50.83
2018-11-04T16:15:28.513Z,46.07
2018-11-04T16:17:57.104Z,49.57
2018-11-04T16:20:25.720Z,48.43
2018-11-04T16:22:54.238Z,55.23
2018-11-04T16:25:22.737Z,50.63
2018-11-04T16:27:51.399Z,46.93
2018-11-04T16:30:19.891Z,49.43
2018-11-04T16:32:48.363Z,49.33
2018-11-04T16:35:16.924Z,47.93
2018-11-04T16:37:45.811Z,47.20
2018-11-04T16:40:14.278Z,47.63
2018-11-04T16:42:42.845Z,47.13
2018-11-04T16:45:13.506Z,42.00
2018-11-04T16:47:42.062Z,42.87
2018-11-04T16:50:11.441Z,48.30
2018-11-04T16:52:40.070Z,50.13
2018-11-04T16:55:09.504Z,48.57
2018-11-04T16:57:38.148Z,43.40
2018-11-04T17:00:07.812Z,44.00
2018-11-04T17:02:36.643Z,47.37
2018-11-04T17:05:05.519Z,45.50
2018-11-04T17:07:33.998Z,45.53
2018-11-04T17:10:02.562Z,43.47
2018-11-04T17:12:31.159Z,46.73
2018-11-04T17:14:59.650Z,46.70
2018-11-04T17:17:28.320Z,43.63
2018-11-04T17:19:56.805Z,49.57
2018-11-04T17:22:25.305Z,52.53
2018-11-04T17:24:53.816Z,46.90
2018-11-04T17:27:22.360Z,45.57
2018-11-04T17:29:51.044Z,45.80
2018-11-04T17:32:19.574Z,45.93
2018-11-04T17:34:48.194Z,46.23
2018-11-04T17:37:16.803Z,42.97
2018-11-04T17:39:45.263Z,46.13
2018-11-04T17:42:13.789Z,45.30
2018-11-04T17:44:42.397Z,45.70
2018-11-04T17:47:10.863Z,45.07
2018-11-04T17:49:39.491Z,42.20
2018-11-04T17:52:08.205Z,42.83
2018-11-04T17:54:36.805Z,44.00
2018-11-04T17:57:05.517Z,43.33
2018-11-04T17:59:34.064Z,44.40
2018-11-04T18:02:03.127Z,43.17
2018-11-04T18:04:32.007Z,44.27
2018-11-04T18:07:00.606Z,41.90
2018-11-04T18:09:29.208Z,41.10
2018-11-04T18:11:57.994Z,40.33
2018-11-04T18:14:26.583Z,42.57
2018-11-04T18:16:55.132Z,43.00
2018-11-04T18:19:23.682Z,47.23
2018-11-04T18:21:52.288Z,43.23
2018-11-04T18:24:20.950Z,39.67
2018-11-04T18:26:49.614Z,43.93
2018-11-04T18:29:18.218Z,44.47
2018-11-04T18:31:46.978Z,45.43
2018-11-04T18:34:15.652Z,42.37
2018-11-04T18:36:44.962Z,44.00
2018-11-04T18:39:13.603Z,43.50
2018-11-04T18:41:42.660Z,48.10
2018-11-04T18:44:11.303Z,49.93
2018-11-04T18:46:39.932Z,49.83
2018-11-04T18:49:09.152Z,50.23
2018-11-04T18:51:43.771Z,51.57
2018-11-04T18:54:12.729Z,48.87
2018-11-04T18:56:41.428Z,47.30
2018-11-04T18:59:10.227Z,51.43
2018-11-04T19:01:38.899Z,50.73
2018-11-04T19:04:07.762Z,54.23
2018-11-04T19:06:36.380Z,51.00
2018-11-04T19:09:07.367Z,48.73
2018-11-04T19:11:36.017Z,52.43
2018-11-04T19:14:04.529Z,50.47
2018-11-04T19:16:33.263Z,46.47
2018-11-04T19:19:02.127Z,50.97
2018-11-04T19:21:31.508Z,55.03
2018-11-04T19:24:00.144Z,51.30
2018-11-04T19:26:29.006Z,52.23
2018-11-04T19:28:57.690Z,48.13
2018-11-04T19:31:27.239Z,50.50
2018-11-04T19:33:55.903Z,52.10
2018-11-04T19:36:24.866Z,54.60
2018-11-04T19:38:53.360Z,53.83
2018-11-04T19:41:21.998Z,54.17
2018-11-04T19:43:50.640Z,57.70
2018-11-04T19:46:19.364Z,57.00
2018-11-04T19:48:48.172Z,57.93
2018-11-04T19:51:16.757Z,58.73
2018-11-04T19:53:45.352Z,60.77
2018-11-04T19:56:14.167Z,59.27
2018-11-04T19:58:42.911Z,57.83
2018-11-04T20:01:11.921Z,61.00
2018-11-04T20:03:40.575Z,56.23
2018-11-04T20:06:09.285Z,56.00
2018-11-04T20:08:42.782Z,56.63
2018-11-04T20:11:11.476Z,59.17
2018-11-04T20:13:46.200Z,57.73
2018-11-04T20:16:14.928Z,55.47
2018-11-04T20:18:48.815Z,59.40
2018-11-04T20:21:17.354Z,60.03
2018-11-04T20:23:45.839Z,59.83
2018-11-04T20:26:15.523Z,61.60
2018-11-04T20:28:44.094Z,59.87
2018-11-04T20:31:17.879Z,60.47
2018-11-04T20:33:47.473Z,62.73
2018-11-04T20:36:16.066Z,64.50
2018-11-04T20:38:50.179Z,65.73
2018-11-04T20:41:24.128Z,66.07
2018-11-04T20:43:52.681Z,69.07
2018-11-04T20:46:22.147Z,69.13
2018-11-04T20:48:56.204Z,64.77
2018-11-04T20:51:24.863Z,59.10
2018-11-04T20:53:54.189Z,62.93
2018-11-04T20:56:28.691Z,63.73
2018-11-04T20:58:57.599Z,62.60
2018-11-04T21:01:27.035Z,61.00
2018-11-04T21:03:56.416Z,58.13
2018-11-04T21:06:24.991Z,57.77
2018-11-04T21:08:53.583Z,57.10
2018-11-04T21:11:22.980Z,58.97
2018-11-04T21:13:51.868Z,54.53
2018-11-04T21:16:21.551Z,56.03
2018-11-04T21:18:50.144Z,54.10
2018-11-04T21:21:19.366Z,57.57
2018-11-04T21:23:47.967Z,56.70
2018-11-04T21:26:16.516Z,55.10
2018-11-04T21:28:45.228Z,55.50
2018-11-04T21:31:14.680Z,56.33
2018-11-04T21:33:44.844Z,55.10
2018-11-04T21:36:14.265Z,50.73
2018-11-04T21:38:42.912Z,51.23
2018-11-04T21:41:11.456Z,51.70
2018-11-04T21:43:40.446Z,54.03
2018-11-04T21:46:08.968Z,57.23
2018-11-04T21:48:37.780Z,50.63
2018-11-04T21:51:06.454Z,53.50
2018-11-04T21:53:36.691Z,51.97
2018-11-04T21:56:06.044Z,53.47
2018-11-04T21:58:34.648Z,53.43
2018-11-04T22:01:03.380Z,54.00
2018-11-04T22:03:33.063Z,55.10
2018-11-04T22:06:01.667Z,53.23
2018-11-04T22:08:34.355Z,53.43
2018-11-04T22:11:02.958Z,56.10
2018-11-04T22:13:31.690Z,53.07
2018-11-04T22:16:02.868Z,51.93
2018-11-04T22:18:31.572Z,50.40
2018-11-04T22:21:00.264Z,49.23
2018-11-04T22:23:28.839Z,51.63
2018-11-04T22:25:59.140Z,53.73
2018-11-04T22:28:27.860Z,52.30
2018-11-04T22:30:57.784Z,49.80
2018-11-04T22:33:27.226Z,50.13
2018-11-04T22:35:55.867Z,51.60
2018-11-04T22:38:25.404Z,49.77
2018-11-04T22:40:54.166Z,49.77
2018-11-04T22:43:22.824Z,45.73
2018-11-04T22:45:52.141Z,45.90
2018-11-04T22:48:22.101Z,45.07
2018-11-04T22:50:50.738Z,44.73
2018-11-04T22:53:19.760Z,47.50
2018-11-04T22:55:49.712Z,44.90
2018-11-04T22:58:19.184Z,45.63
2018-11-04T23:00:52.331Z,44.83
2018-11-04T23:03:20.935Z,44.20
2018-11-04T23:05:49.832Z,47.50
2018-11-04T23:08:20.634Z,47.93
2018-11-04T23:10:50.566Z,47.83
2018-11-04T23:13:19.640Z,48.83
2018-11-04T23:15:48.329Z,47.00
2018-11-04T23:18:17.867Z,48.67
2018-11-04T23:20:46.642Z,46.50
2018-11-04T23:23:16.133Z,50.60
2018-11-04T23:25:44.790Z,49.10
2018-11-04T23:28:16.764Z,50.47
2018-11-04T23:30:45.950Z,49.47
2018-11-04T23:33:16.445Z,50.47
2018-11-04T23:35:46.018Z,50.27
2018-11-04T23:38:15.005Z,48.63
2018-11-04T23:40:43.684Z,49.90
2018-11-04T23:43:13.276Z,48.83
2018-11-04T23:45:42.224Z,48.97
2018-11-04T23:48:10.841Z,49.27
2018-11-04T23:50:41.580Z,48.40
2018-11-04T23:53:11.429Z,47.33
2018-11-04T23:55:40.115Z,47.53
2018-11-04T23:58:10.617Z,48.80
